Time;durP1;ratioP1;P1;durP2;ratioP2;P2;SDS_P1;SDS_P2;PMS_P1;PMS_P2;Temp;Humidity;BMP_temperature;BMP_pressure;BME280_temperature;BME280_humidity;BME280_pressure;Samples;Min_cycle;Max_cycle;Signal;HPM_P1;HPM_P2
2022/08/15 00:02:18;;;;;;;14.83;9.20;;;25.20;99.90;;;;;;5084595;28;20453;-53
2022/08/15 00:04:45;;;;;;;15.33;9.67;;;25.20;99.90;;;;;;5083709;28;20498;-51
2022/08/15 00:07:12;;;;;;;13.30;9.57;;;25.20;99.90;;;;;;5084425;28;20446;-51
2022/08/15 00:09:41;;;;;;;10.37;8.60;;;25.20;99.90;;;;;;5084526;28;20453;-51
2022/08/15 00:12:08;;;;;;;11.50;10.40;;;25.20;99.90;;;;;;5084193;28;20458;-49
2022/08/15 00:14:40;;;;;;;11.70;9.10;;;25.20;99.90;;;;;;5083888;28;20486;-53
2022/08/15 00:17:10;;;;;;;15.50;9.60;;;25.20;99.90;;;;;;5083608;28;20841;-51
2022/08/15 00:19:39;;;;;;;13.67;9.03;;;25.10;99.90;;;;;;5084348;28;20529;-51
2022/08/15 00:22:10;;;;;;;11.10;10.00;;;25.10;99.90;;;;;;5084780;28;20481;-53
2022/08/15 00:24:38;;;;;;;12.00;10.03;;;25.00;99.90;;;;;;5083862;28;20447;-53
2022/08/15 00:27:10;;;;;;;11.57;10.40;;;25.00;99.90;;;;;;5084237;28;20520;-54
2022/08/15 00:29:38;;;;;;;11.93;10.80;;;24.90;99.90;;;;;;5084728;28;20418;-51
2022/08/15 00:32:07;;;;;;;11.50;10.40;;;24.90;99.90;;;;;;5084265;28;20465;-50
2022/08/15 00:34:34;;;;;;;12.50;9.47;;;24.90;99.90;;;;;;5084648;28;20513;-52
2022/08/15 00:37:03;;;;;;;12.93;11.13;;;24.80;99.90;;;;;;5084646;28;20442;-51
2022/08/15 00:39:30;;;;;;;10.43;9.17;;;24.80;99.90;;;;;;5084625;28;20438;-51
2022/08/15 00:42:00;;;;;;;11.40;9.37;;;24.80;99.90;;;;;;5084810;28;20458;-55
2022/08/15 00:44:32;;;;;;;10.93;9.83;;;24.70;99.90;;;;;;5085711;28;20514;-56
2022/08/15 00:47:02;;;;;;;13.10;11.70;;;24.70;99.90;;;;;;5086635;28;20450;-52
2022/08/15 00:49:32;;;;;;;19.00;9.70;;;24.70;99.90;;;;;;5085774;28;20509;-49
2022/08/15 00:52:04;;;;;;;11.17;9.90;;;24.60;99.90;;;;;;5084946;28;20482;-54
2022/08/15 00:54:35;;;;;;;9.57;8.67;;;24.60;99.90;;;;;;5084329;28;20477;-51
2022/08/15 00:57:06;;;;;;;11.83;9.60;;;24.50;99.90;;;;;;5085983;28;20442;-53
2022/08/15 00:59:41;;;;;;;12.30;9.70;;;24.50;99.90;;;;;;5088495;28;20427;-50
2022/08/15 01:02:11;;;;;;;11.73;8.80;;;24.50;99.90;;;;;;5088082;28;20503;-50
2022/08/15 01:04:39;;;;;;;12.23;10.43;;;24.50;99.90;;;;;;5088511;28;20457;-53
2022/08/15 01:07:07;;;;;;;17.77;10.70;;;24.40;99.90;;;;;;5088452;28;20466;-53
2022/08/15 01:09:35;;;;;;;11.10;10.00;;;24.40;99.90;;;;;;5087949;28;20593;-50
2022/08/15 01:12:07;;;;;;;10.60;9.50;;;24.40;99.90;;;;;;5088259;28;20468;-54
2022/08/15 01:14:37;;;;;;;15.90;11.30;;;24.30;99.90;;;;;;5088770;28;20478;-50
2022/08/15 01:17:07;;;;;;;12.77;9.80;;;24.30;99.90;;;;;;5088952;28;20528;-52
2022/08/15 01:19:38;;;;;;;12.00;10.80;;;24.30;99.90;;;;;;5089199;28;20464;-53
2022/08/15 01:22:37;;;;;;;12.00;10.77;;;24.20;99.90;;;;;;5088613;28;20446;-53
2022/08/15 01:25:11;;;;;;;12.07;10.73;;;24.20;99.90;;;;;;5088980;28;20509;-49
2022/08/15 01:27:42;;;;;;;11.73;10.53;;;24.20;99.90;;;;;;5089946;28;20426;-48
2022/08/15 01:30:15;;;;;;;12.83;11.43;;;24.10;99.90;;;;;;5090195;28;20490;-49
2022/08/15 01:32:42;;;;;;;11.57;10.27;;;24.20;99.90;;;;;;5090245;28;20498;-52
2022/08/15 01:35:09;;;;;;;14.43;10.77;;;24.10;99.90;;;;;;5088684;28;20545;-47
2022/08/15 01:37:37;;;;;;;12.30;10.60;;;24.10;99.90;;;;;;5089038;28;20506;-49
2022/08/15 01:40:18;;;;;;;15.60;12.13;;;24.00;99.90;;;;;;5088777;28;20530;-53
2022/08/15 01:42:48;;;;;;;11.37;10.23;;;24.00;99.90;;;;;;5088902;28;20465;-50
2022/08/15 01:45:21;;;;;;;11.67;10.27;;;24.00;99.90;;;;;;5088427;28;20445;-48
2022/08/15 01:47:52;;;;;;;11.77;10.60;;;24.00;99.90;;;;;;5089025;28;20495;-47
2022/08/15 01:50:24;;;;;;;16.43;12.00;;;23.90;99.90;;;;;;5088872;28;20485;-52
2022/08/15 01:52:56;;;;;;;11.57;10.37;;;23.90;99.90;;;;;;5089190;28;20434;-49
2022/08/15 01:55:29;;;;;;;12.50;11.20;;;23.90;99.90;;;;;;5089757;28;20557;-50
2022/08/15 01:57:56;;;;;;;14.83;10.53;;;23.90;99.90;;;;;;5090365;28;20476;-48
2022/08/15 02:00:23;;;;;;;14.40;11.20;;;23.90;99.90;;;;;;5090312;28;20534;-51
2022/08/15 02:02:50;;;;;;;21.93;10.93;;;23.80;99.90;;;;;;5090588;28;20438;-50
2022/08/15 02:05:20;;;;;;;11.83;10.50;;;23.80;99.90;;;;;;5090393;28;20511;-53
2022/08/15 02:07:47;;;;;;;12.37;10.97;;;23.80;99.90;;;;;;5090203;28;20521;-48
2022/08/15 02:10:14;;;;;;;12.83;10.50;;;23.80;99.90;;;;;;5089478;28;20439;-50
2022/08/15 02:12:42;;;;;;;13.80;10.83;;;23.80;99.90;;;;;;5089641;28;20454;-48
2022/08/15 02:15:15;;;;;;;11.87;10.17;;;23.80;99.90;;;;;;5089723;28;20478;-52
2022/08/15 02:17:43;;;;;;;15.73;11.43;;;23.80;99.90;;;;;;5089424;28;20459;-52
2022/08/15 02:20:11;;;;;;;13.03;11.50;;;23.80;99.90;;;;;;5089940;28;20457;-48
2022/08/15 02:22:38;;;;;;;14.00;11.53;;;23.80;99.90;;;;;;5089764;28;20455;-53
2022/08/15 02:25:11;;;;;;;14.67;12.57;;;23.70;99.90;;;;;;5088388;28;20442;-54
2022/08/15 02:27:39;;;;;;;17.40;11.53;;;23.70;99.90;;;;;;5088477;28;20451;-52
2022/08/15 02:30:12;;;;;;;12.13;10.90;;;23.70;99.90;;;;;;5088077;28;20458;-50
2022/08/15 02:32:40;;;;;;;10.97;9.97;;;23.70;99.90;;;;;;5087756;28;20490;-50
2022/08/15 02:35:09;;;;;;;12.30;10.00;;;23.60;99.90;;;;;;5087783;28;20478;-48
2022/08/15 02:37:37;;;;;;;14.40;10.70;;;23.60;99.90;;;;;;5088064;28;20514;-50
2022/08/15 02:40:07;;;;;;;12.20;11.00;;;23.50;99.90;;;;;;5087142;28;20462;-51
2022/08/15 02:42:36;;;;;;;16.23;11.60;;;23.50;99.90;;;;;;5088140;28;20439;-50
2022/08/15 02:45:04;;;;;;;12.30;11.10;;;23.50;99.90;;;;;;5087494;28;20506;-52
2022/08/15 02:47:34;;;;;;;12.33;11.00;;;23.40;99.90;;;;;;5088199;28;20488;-49
2022/08/15 02:50:02;;;;;;;13.00;10.90;;;23.40;99.90;;;;;;5087160;28;20446;-52
2022/08/15 02:52:28;;;;;;;11.20;10.10;;;23.30;99.90;;;;;;5088071;28;20485;-50
2022/08/15 02:54:56;;;;;;;15.10;11.43;;;23.30;99.90;;;;;;5088133;28;20474;-47
2022/08/15 02:57:23;;;;;;;14.20;12.70;;;23.30;99.90;;;;;;5089234;28;20985;-50
2022/08/15 02:59:50;;;;;;;17.30;11.30;;;23.30;99.90;;;;;;5088360;28;20465;-54
2022/08/15 03:02:17;;;;;;;13.07;10.83;;;23.20;99.90;;;;;;5087839;28;20525;-52
2022/08/15 03:04:48;;;;;;;12.53;11.17;;;23.10;99.90;;;;;;5088420;28;20449;-50
2022/08/15 03:07:15;;;;;;;13.87;11.87;;;23.20;99.90;;;;;;5088156;28;20478;-53
2022/08/15 03:09:43;;;;;;;14.20;12.30;;;23.10;99.90;;;;;;5088532;28;20442;-48
2022/08/15 03:12:12;;;;;;;13.30;11.80;;;23.10;99.90;;;;;;5089083;28;20939;-51
2022/08/15 03:14:39;;;;;;;12.47;11.17;;;23.00;99.90;;;;;;5088493;28;20569;-50
2022/08/15 03:17:08;;;;;;;15.10;12.00;;;23.00;99.90;;;;;;5088250;28;20474;-50
2022/08/15 03:19:36;;;;;;;16.07;12.43;;;23.00;99.90;;;;;;5086981;28;20458;-52
2022/08/15 03:22:05;;;;;;;14.17;12.47;;;23.00;99.90;;;;;;5087859;28;20470;-54
2022/08/15 03:24:32;;;;;;;14.77;11.97;;;22.90;99.90;;;;;;5088660;28;20470;-52
2022/08/15 03:26:59;;;;;;;15.50;11.77;;;22.90;99.90;;;;;;5088445;28;20462;-50
2022/08/15 03:29:27;;;;;;;16.23;12.40;;;22.80;99.90;;;;;;5088644;28;20804;-53
2022/08/15 03:31:54;;;;;;;12.10;10.80;;;22.80;99.90;;;;;;5088952;28;20474;-50
2022/08/15 03:34:26;;;;;;;15.00;12.40;;;22.70;99.90;;;;;;5089687;28;20480;-50
2022/08/15 03:36:53;;;;;;;12.93;11.50;;;22.60;99.90;;;;;;5088273;28;20508;-54
2022/08/15 03:39:22;;;;;;;15.23;11.93;;;22.60;99.90;;;;;;5089013;28;20447;-50
2022/08/15 03:41:49;;;;;;;17.17;12.20;;;22.60;99.90;;;;;;5088251;28;20549;-54
2022/08/15 03:44:16;;;;;;;16.30;11.30;;;22.60;99.90;;;;;;5087819;28;20442;-53
2022/08/15 03:46:43;;;;;;;15.90;12.10;;;22.60;99.90;;;;;;5088478;28;20466;-49
2022/08/15 03:49:13;;;;;;;15.73;13.43;;;22.60;99.90;;;;;;5088323;28;20473;-49
2022/08/15 03:51:40;;;;;;;16.27;11.57;;;22.60;99.90;;;;;;5089193;28;20493;-51
2022/08/15 03:54:07;;;;;;;17.83;12.90;;;22.50;99.90;;;;;;5088182;28;20443;-51
2022/08/15 03:56:36;;;;;;;16.57;13.07;;;22.50;99.90;;;;;;5089024;28;20470;-51
2022/08/15 03:59:03;;;;;;;13.83;12.40;;;22.50;99.90;;;;;;5088891;28;20427;-48
2022/08/15 04:01:32;;;;;;;15.27;12.70;;;22.50;99.90;;;;;;5087924;28;20453;-48
2022/08/15 04:04:00;;;;;;;19.33;13.57;;;22.50;99.90;;;;;;5088126;28;20455;-52
2022/08/15 04:06:30;;;;;;;20.60;13.10;;;22.50;99.90;;;;;;5088231;28;20442;-47
2022/08/15 04:08:57;;;;;;;14.90;12.63;;;22.50;99.90;;;;;;5089044;28;20430;-46
2022/08/15 04:11:28;;;;;;;14.50;12.90;;;22.40;99.90;;;;;;5088960;28;20458;-45
2022/08/15 04:13:58;;;;;;;15.33;12.37;;;22.40;99.90;;;;;;5089118;28;20488;-50
2022/08/15 04:16:25;;;;;;;17.90;12.10;;;22.40;99.90;;;;;;5088234;28;20473;-52
2022/08/15 04:18:53;;;;;;;15.30;12.37;;;22.40;99.90;;;;;;5088239;28;20442;-50
2022/08/15 04:21:20;;;;;;;15.53;13.27;;;22.40;99.90;;;;;;5088044;28;20455;-51
2022/08/15 04:23:48;;;;;;;17.57;12.77;;;22.40;99.90;;;;;;5087475;28;20451;-54
2022/08/15 04:26:17;;;;;;;15.90;12.10;;;22.40;99.90;;;;;;5087370;28;20938;-54
2022/08/15 04:28:44;;;;;;;18.83;12.43;;;22.40;99.90;;;;;;5087387;28;20465;-51
2022/08/15 04:31:14;;;;;;;15.00;12.70;;;22.40;99.90;;;;;;5087805;28;20446;-50
2022/08/15 04:33:44;;;;;;;14.40;12.10;;;22.30;99.90;;;;;;5087915;28;20526;-53
2022/08/15 04:36:13;;;;;;;18.07;13.20;;;22.30;99.90;;;;;;5087464;28;20489;-49
2022/08/15 04:38:42;;;;;;;17.43;12.83;;;22.40;99.90;;;;;;5087721;28;20454;-47
2022/08/15 04:41:10;;;;;;;13.97;11.33;;;22.40;99.90;;;;;;5088114;28;20447;-49
2022/08/15 04:43:40;;;;;;;16.13;11.70;;;22.40;99.90;;;;;;5089215;28;20517;-49
2022/08/15 04:46:07;;;;;;;16.83;12.50;;;22.40;99.90;;;;;;5088410;28;20435;-50
2022/08/15 04:48:35;;;;;;;18.50;12.80;;;22.50;99.90;;;;;;5088129;28;20474;-50
2022/08/15 04:51:04;;;;;;;15.30;12.57;;;22.50;99.90;;;;;;5088336;28;20481;-46
2022/08/15 04:53:34;;;;;;;13.83;12.17;;;22.60;99.90;;;;;;5089011;28;20445;-52
2022/08/15 04:56:03;;;;;;;12.83;11.33;;;22.60;99.90;;;;;;5088585;28;20486;-50
2022/08/15 04:58:30;;;;;;;17.97;14.20;;;22.60;99.90;;;;;;5087946;28;20529;-49
2022/08/15 05:01:02;;;;;;;17.13;12.13;;;22.60;99.90;;;;;;5087202;28;20453;-49
2022/08/15 05:03:30;;;;;;;13.73;11.90;;;22.60;99.90;;;;;;5087582;28;20466;-52
2022/08/15 05:06:05;;;;;;;13.30;11.37;;;22.70;99.90;;;;;;5089437;28;20427;-50
2022/08/15 05:08:35;;;;;;;15.17;12.50;;;22.70;99.90;;;;;;5088377;28;20496;-51
2022/08/15 05:11:08;;;;;;;16.10;13.43;;;22.80;99.90;;;;;;5087203;28;20458;-51
2022/08/15 05:13:37;;;;;;;20.37;12.43;;;22.80;99.90;;;;;;5087204;28;20549;-53
2022/08/15 05:16:07;;;;;;;17.13;12.90;;;22.80;99.90;;;;;;5087666;28;20541;-49
2022/08/15 05:18:35;;;;;;;16.23;13.33;;;22.80;99.90;;;;;;5087409;28;20466;-49
2022/08/15 05:21:04;;;;;;;18.33;13.60;;;22.80;99.90;;;;;;5086689;28;20442;-51
2022/08/15 05:23:32;;;;;;;16.10;11.70;;;22.80;99.90;;;;;;5087448;28;20538;-52
2022/08/15 05:26:01;;;;;;;15.17;13.17;;;22.80;99.90;;;;;;5086978;28;20445;-51
2022/08/15 05:28:28;;;;;;;17.80;13.63;;;22.80;99.90;;;;;;5087180;28;20504;-47
2022/08/15 05:30:56;;;;;;;15.37;12.80;;;22.80;99.90;;;;;;5087675;28;20473;-51
2022/08/15 05:33:25;;;;;;;15.13;12.00;;;22.80;99.90;;;;;;5086913;28;20552;-49
2022/08/15 05:35:54;;;;;;;15.63;12.93;;;22.90;99.90;;;;;;5087117;28;20466;-49
2022/08/15 05:38:25;;;;;;;14.47;12.50;;;22.90;99.90;;;;;;5087048;28;20480;-48
2022/08/15 05:41:04;;;;;;;16.73;13.17;;;23.00;99.90;;;;;;5087286;28;20494;-48
2022/08/15 05:43:40;;;;;;;18.70;11.73;;;23.00;99.90;;;;;;5088585;28;20553;-48
2022/08/15 05:46:21;;;;;;;18.40;14.00;;;23.00;99.90;;;;;;5089920;28;20505;-50
2022/08/15 05:48:54;;;;;;;16.57;12.33;;;23.10;99.90;;;;;;5089914;28;20461;-50
2022/08/15 05:51:33;;;;;;;17.10;13.27;;;23.00;99.90;;;;;;5090354;28;20530;-49
2022/08/15 05:54:13;;;;;;;15.43;12.67;;;23.10;99.90;;;;;;5089831;28;20795;-49
2022/08/15 05:56:48;;;;;;;14.97;12.30;;;23.10;99.90;;;;;;5090360;28;20462;-49
2022/08/15 05:59:18;;;;;;;14.60;12.57;;;23.10;99.90;;;;;;5090145;28;20433;-52
2022/08/15 06:01:49;;;;;;;15.10;12.67;;;23.20;99.90;;;;;;5090150;28;20602;-48
2022/08/15 06:04:21;;;;;;;15.80;13.57;;;23.20;99.90;;;;;;5089961;28;20435;-50
2022/08/15 06:06:51;;;;;;;16.60;11.90;;;23.20;99.90;;;;;;5090569;28;20435;-48
2022/08/15 06:09:38;;;;;;;16.37;12.57;;;23.30;99.90;;;;;;5089620;28;20507;-51
2022/08/15 06:12:12;;;;;;;22.60;12.70;;;23.40;99.90;;;;;;5090801;28;20434;-50
2022/08/15 06:14:42;;;;;;;16.50;11.03;;;23.50;99.90;;;;;;5091436;28;20479;-51
2022/08/15 06:17:16;;;;;;;16.60;13.33;;;23.60;99.90;;;;;;5092312;28;20447;-49
2022/08/15 06:19:47;;;;;;;14.47;13.00;;;23.80;99.90;;;;;;5091081;28;20457;-50
2022/08/15 06:22:41;;;;;;;12.23;11.03;;;24.00;99.90;;;;;;5090838;28;20427;-48
2022/08/15 06:25:17;;;;;;;15.73;12.23;;;24.10;99.90;;;;;;5089997;28;20482;-53
2022/08/15 06:27:56;;;;;;;18.73;13.60;;;24.30;99.90;;;;;;5090186;28;20954;-48
2022/08/15 06:30:35;;;;;;;16.10;11.77;;;24.40;99.90;;;;;;5089346;28;20502;-48
2022/08/15 06:33:10;;;;;;;13.93;11.87;;;24.50;99.90;;;;;;5089030;28;20490;-50
2022/08/15 06:35:44;;;;;;;15.60;11.97;;;24.60;99.90;;;;;;5091741;28;20481;-60
2022/08/15 06:38:21;;;;;;;14.97;12.63;;;24.70;99.90;;;;;;5096606;28;20454;-58
2022/08/15 06:40:54;;;;;;;15.40;11.77;;;24.70;99.90;;;;;;5096370;28;20447;-63
2022/08/15 06:43:21;;;;;;;15.90;11.30;;;24.70;99.90;;;;;;5096347;28;20473;-61
2022/08/15 06:45:50;;;;;;;18.67;12.80;;;24.70;99.90;;;;;;5096333;28;20414;-59
2022/08/15 06:48:21;;;;;;;15.37;12.53;;;24.80;99.90;;;;;;5096364;28;20545;-60
2022/08/15 06:50:51;;;;;;;15.90;12.03;;;24.90;99.90;;;;;;5096945;28;20484;-61
2022/08/15 06:53:23;;;;;;;13.30;10.70;;;25.00;99.90;;;;;;5096195;28;20513;-60
2022/08/15 06:55:59;;;;;;;15.10;11.40;;;25.10;99.90;;;;;;5096203;28;20461;-59
2022/08/15 06:58:46;;;;;;;16.73;10.77;;;25.20;99.90;;;;;;5096075;28;20469;-61
2022/08/15 07:01:27;;;;;;;13.77;10.10;;;25.20;99.90;;;;;;5095832;28;20498;-59
2022/08/15 07:04:04;;;;;;;11.50;10.13;;;25.10;99.90;;;;;;5096253;28;20462;-60
2022/08/15 07:06:35;;;;;;;12.27;9.63;;;25.10;99.90;;;;;;5096216;28;20432;-60
2022/08/15 07:09:17;;;;;;;15.47;9.53;;;25.10;99.90;;;;;;5095643;28;20474;-57
2022/08/15 07:11:51;;;;;;;12.70;11.40;;;25.20;99.90;;;;;;5096191;28;20526;-58
2022/08/15 07:14:25;;;;;;;11.87;9.13;;;25.30;99.90;;;;;;5095821;28;20510;-59
2022/08/15 07:16:58;;;;;;;10.30;9.20;;;25.40;99.90;;;;;;5095849;28;20501;-60
2022/08/15 07:19:26;;;;;;;13.20;9.40;;;25.50;99.90;;;;;;5096060;28;20466;-60
2022/08/15 07:21:53;;;;;;;11.90;9.73;;;25.60;99.90;;;;;;5095717;28;20482;-61
2022/08/15 07:24:29;;;;;;;12.90;10.10;;;25.60;99.90;;;;;;5095789;28;20470;-59
2022/08/15 07:27:00;;;;;;;12.83;10.23;;;25.70;99.90;;;;;;5095707;28;20482;-59
2022/08/15 07:29:40;;;;;;;14.77;9.60;;;25.80;99.90;;;;;;5095430;28;20492;-61
2022/08/15 07:32:10;;;;;;;16.03;9.60;;;25.80;99.90;;;;;;5095620;28;20438;-58
2022/08/15 07:34:39;;;;;;;12.97;11.53;;;25.90;99.90;;;;;;5095457;28;20493;-61
2022/08/15 07:37:08;;;;;;;11.70;9.60;;;26.00;99.90;;;;;;5094883;28;20469;-59
2022/08/15 07:39:39;;;;;;;20.47;9.67;;;26.10;99.90;;;;;;5095126;28;20513;-61
2022/08/15 07:42:15;;;;;;;10.50;9.40;;;26.20;99.90;;;;;;5095014;28;20446;-58
2022/08/15 07:44:50;;;;;;;13.00;9.50;;;26.30;99.90;;;;;;5095002;28;20426;-59
2022/08/15 07:47:24;;;;;;;9.57;8.47;;;26.50;99.90;;;;;;5094246;28;20441;-59
2022/08/15 07:49:59;;;;;;;16.27;9.33;;;26.50;99.90;;;;;;5094535;28;20455;-61
2022/08/15 07:52:27;;;;;;;11.57;9.13;;;26.60;99.90;;;;;;5094569;28;20426;-60
2022/08/15 07:54:56;;;;;;;10.57;8.63;;;26.80;99.90;;;;;;5094547;28;20446;-59
2022/08/15 07:57:28;;;;;;;10.40;7.80;;;27.40;99.90;;;;;;5093427;28;20498;-59
2022/08/15 08:00:13;;;;;;;27.10;9.20;;;29.00;99.90;;;;;;5094448;28;20463;-61
2022/08/15 08:02:44;;;;;;;12.93;8.23;;;30.90;99.90;;;;;;5094858;28;20445;-60
2022/08/15 08:05:12;;;;;;;11.53;8.63;;;32.80;99.90;;;;;;5094704;28;20470;-60
2022/08/15 08:07:42;;;;;;;16.07;8.90;;;34.30;99.90;;;;;;5095069;28;20446;-58
2022/08/15 08:10:17;;;;;;;10.03;8.97;;;35.50;95.60;;;;;;5096032;28;20457;-58
2022/08/15 08:12:54;;;;;;;8.27;7.40;;;36.50;91.40;;;;;;5096527;28;20441;-59
2022/08/15 08:15:28;;;;;;;9.33;8.43;;;37.70;84.60;;;;;;5096547;28;20458;-57
2022/08/15 08:18:03;;;;;;;9.80;9.00;;;38.50;75.60;;;;;;5096146;28;20457;-61
2022/08/15 08:20:36;;;;;;;8.57;7.87;;;38.50;71.30;;;;;;5093896;28;20514;-59
2022/08/15 08:23:09;;;;;;;11.03;9.40;;;38.00;71.50;;;;;;5094762;28;20418;-61
2022/08/15 08:25:42;;;;;;;9.90;8.90;;;38.30;70.00;;;;;;5095766;28;20429;-56
2022/08/15 08:28:21;;;;;;;10.20;9.30;;;38.70;67.80;;;;;;5095561;28;20449;-60
2022/08/15 08:30:58;;;;;;;11.63;10.37;;;39.10;66.40;;;;;;5095505;28;20434;-60
2022/08/15 08:33:40;;;;;;;11.00;10.00;;;39.10;64.70;;;;;;5092827;28;20453;-61
2022/08/15 08:36:21;;;;;;;11.30;10.27;;;38.30;65.30;;;;;;5090681;28;20512;-60
2022/08/15 08:38:59;;;;;;;12.37;9.70;;;37.70;66.20;;;;;;5091957;28;20516;-61
2022/08/15 08:41:42;;;;;;;13.90;11.90;;;37.40;67.80;;;;;;5093618;28;20506;-61
2022/08/15 08:44:27;;;;;;;9.83;8.93;;;37.80;66.80;;;;;;5094233;28;20524;-62
2022/08/15 08:47:17;;;;;;;10.47;9.10;;;38.60;64.70;;;;;;5095090;28;20449;-61
2022/08/15 08:49:53;;;;;;;10.60;9.67;;;39.10;62.10;;;;;;5093311;28;20474;-60
2022/08/15 08:52:29;;;;;;;10.90;10.00;;;38.40;62.60;;;;;;5089620;28;20434;-61
2022/08/15 08:55:01;;;;;;;11.00;9.90;;;37.50;65.00;;;;;;5090958;28;20496;-61
2022/08/15 08:57:34;;;;;;;10.30;9.20;;;37.60;65.60;;;;;;5093137;28;20450;-58
2022/08/15 09:00:11;;;;;;;10.00;9.13;;;37.90;64.30;;;;;;5093921;28;20458;-60
2022/08/15 09:02:44;;;;;;;9.10;8.30;;;38.10;63.50;;;;;;5094646;28;20449;-60
2022/08/15 09:05:18;;;;;;;9.53;8.70;;;38.60;62.20;;;;;;5094357;28;20462;-61
2022/08/15 09:07:52;;;;;;;10.20;9.07;;;39.00;61.00;;;;;;5094401;28;20520;-59
2022/08/15 09:10:24;;;;;;;10.40;9.07;;;39.30;59.90;;;;;;5094888;28;20486;-59
2022/08/15 09:15:42;;;;;;;11.13;8.07;;;39.60;58.60;;;;;;5094634;28;20529;-60
2022/08/15 09:18:15;;;;;;;10.67;9.57;;;39.90;57.90;;;;;;5096750;28;20445;-59
2022/08/15 09:20:43;;;;;;;9.63;8.70;;;40.10;57.30;;;;;;5098562;28;20450;-60
2022/08/15 09:23:12;;;;;;;10.40;9.33;;;40.10;56.80;;;;;;5097714;28;20470;-57
2022/08/15 09:25:49;;;;;;;9.93;8.93;;;39.70;56.50;;;;;;5096494;28;20492;-60
2022/08/15 09:28:24;;;;;;;10.37;9.37;;;39.20;57.50;;;;;;5095877;28;20434;-58
2022/08/15 09:30:53;;;;;;;10.30;9.23;;;38.70;57.70;;;;;;5094669;28;20457;-59
2022/08/15 09:33:44;;;;;;;10.77;9.63;;;37.70;58.90;;;;;;5091499;28;20458;-60
2022/08/15 09:36:31;;;;;;;14.07;12.80;;;36.30;61.60;;;;;;5091896;28;20553;-60
2022/08/15 09:39:21;;;;;;;9.93;8.97;;;35.70;64.80;;;;;;5093147;28;20434;-59
2022/08/15 09:42:11;;;;;;;10.50;9.50;;;36.10;64.30;;;;;;5096778;28;20437;-61
2022/08/15 09:44:58;;;;;;;10.17;9.17;;;37.00;62.60;;;;;;5097506;28;20446;-60
2022/08/15 09:47:57;;;;;;;10.20;9.20;;;37.70;60.70;;;;;;5097174;28;20511;-58
2022/08/15 09:50:52;;;;;;;12.13;10.80;;;38.10;59.00;;;;;;5096268;28;20503;-60
2022/08/15 09:53:33;;;;;;;10.50;9.60;;;37.60;59.30;;;;;;5086280;28;20474;-60
2022/08/15 09:56:04;;;;;;;10.77;9.57;;;36.40;61.50;;;;;;5089880;28;20545;-61
2022/08/15 09:58:33;;;;;;;10.67;9.50;;;35.90;63.60;;;;;;5091031;28;20446;-62
2022/08/15 10:01:07;;;;;;;10.60;9.50;;;35.90;64.60;;;;;;5093098;28;20506;-61
2022/08/15 10:04:00;;;;;;;10.73;9.17;;;36.30;65.00;;;;;;5095320;28;20497;-61
2022/08/15 10:06:30;;;;;;;9.50;8.67;;;36.90;62.10;;;;;;5097344;28;20426;-60
2022/08/15 10:09:16;;;;;;;10.20;9.30;;;37.70;60.20;;;;;;5098465;28;20497;-60
2022/08/15 10:11:58;;;;;;;10.60;9.67;;;38.20;58.70;;;;;;5097986;28;20463;-60
2022/08/15 10:14:29;;;;;;;10.90;9.90;;;38.60;58.00;;;;;;5097026;28;20453;-58
2022/08/15 10:17:00;;;;;;;14.87;9.30;;;38.40;58.30;;;;;;5096232;28;20466;-63
2022/08/15 10:19:35;;;;;;;9.43;8.63;;;38.30;58.80;;;;;;5097208;28;20486;-62
2022/08/15 10:22:24;;;;;;;12.00;11.00;;;38.40;58.00;;;;;;5096786;28;20542;-62
2022/08/15 10:25:18;;;;;;;10.73;9.73;;;37.80;58.80;;;;;;5092286;28;20528;-61
2022/08/15 10:28:00;;;;;;;10.37;9.47;;;36.50;60.00;;;;;;5091035;28;20786;-59
2022/08/15 10:30:30;;;;;;;11.63;10.50;;;35.70;63.30;;;;;;5090743;28;20473;-59
2022/08/15 10:32:59;;;;;;;10.07;9.23;;;35.70;63.60;;;;;;5093011;28;20419;-60
2022/08/15 10:35:35;;;;;;;8.43;7.63;;;35.90;62.60;;;;;;5095332;28;20462;-59
2022/08/15 10:38:04;;;;;;;8.27;7.57;;;36.40;60.10;;;;;;5095683;28;20490;-59
2022/08/15 10:40:43;;;;;;;10.43;8.80;;;36.10;60.00;;;;;;5092773;28;20466;-61
2022/08/15 10:43:40;;;;;;;8.83;8.03;;;35.40;61.60;;;;;;5091886;28;20454;-60
2022/08/15 10:46:18;;;;;;;8.80;8.00;;;35.30;63.10;;;;;;5091924;28;20462;-60
2022/08/15 10:48:57;;;;;;;9.90;9.00;;;35.50;62.90;;;;;;5094185;28;20426;-59
2022/08/15 10:51:44;;;;;;;10.90;7.77;;;35.60;61.70;;;;;;5093419;28;20452;-61
2022/08/15 10:54:24;;;;;;;10.60;8.83;;;35.40;62.30;;;;;;5091663;28;20449;-61
2022/08/15 10:56:55;;;;;;;11.87;9.27;;;35.10;63.20;;;;;;5089935;28;20462;-60
2022/08/15 10:59:25;;;;;;;9.73;8.93;;;34.70;64.70;;;;;;5087895;28;20450;-61
2022/08/15 11:02:02;;;;;;;9.87;8.97;;;34.20;65.90;;;;;;5088121;28;20443;-60
2022/08/15 11:04:35;;;;;;;11.00;8.40;;;33.70;67.00;;;;;;5088556;28;20463;-60
2022/08/15 11:07:03;;;;;;;10.23;9.33;;;33.40;68.00;;;;;;5089058;28;20427;-61
2022/08/15 11:09:30;;;;;;;10.70;9.53;;;33.00;68.80;;;;;;5087405;28;20450;-61
2022/08/15 11:12:04;;;;;;;9.47;8.47;;;32.70;70.30;;;;;;5089014;28;20446;-61
2022/08/15 11:14:39;;;;;;;11.50;10.30;;;32.60;71.00;;;;;;5089573;28;20503;-60
2022/08/15 11:17:14;;;;;;;12.10;10.80;;;32.70;71.50;;;;;;5088452;28;20863;-60
2022/08/15 11:19:45;;;;;;;10.80;9.40;;;32.60;72.00;;;;;;5088113;28;20454;-61
2022/08/15 11:22:17;;;;;;;10.87;9.77;;;32.30;71.70;;;;;;5088956;28;20462;-62
2022/08/15 11:24:55;;;;;;;10.93;9.83;;;32.10;73.00;;;;;;5089073;28;20441;-62
2022/08/15 11:27:25;;;;;;;11.40;10.20;;;32.00;72.70;;;;;;5090069;28;20485;-58
2022/08/15 11:29:55;;;;;;;10.77;9.47;;;32.00;73.40;;;;;;5089120;28;20450;-60
2022/08/15 11:32:28;;;;;;;9.87;8.87;;;32.20;73.30;;;;;;5089740;28;20431;-58
2022/08/15 11:34:55;;;;;;;13.67;10.40;;;32.50;73.20;;;;;;5090345;28;20549;-60
2022/08/15 11:37:25;;;;;;;10.10;9.20;;;32.80;72.00;;;;;;5089350;28;20569;-60
2022/08/15 11:39:55;;;;;;;11.50;9.10;;;32.90;70.80;;;;;;5087574;28;20450;-57
2022/08/15 11:42:23;;;;;;;10.43;9.13;;;32.70;70.70;;;;;;5088920;28;20433;-59
2022/08/15 11:44:54;;;;;;;13.23;11.40;;;32.60;71.80;;;;;;5089050;28;20537;-59
2022/08/15 11:47:22;;;;;;;9.93;9.03;;;32.50;71.70;;;;;;5089422;28;20435;-58
2022/08/15 11:49:51;;;;;;;10.80;9.10;;;32.40;71.10;;;;;;5089172;28;20457;-60
2022/08/15 11:52:24;;;;;;;10.67;9.60;;;32.30;71.70;;;;;;5089546;28;20442;-59
2022/08/15 11:55:12;;;;;;;11.53;10.10;;;32.20;72.20;;;;;;5089519;28;20466;-57
2022/08/15 11:57:45;;;;;;;9.37;8.47;;;32.20;72.40;;;;;;5089172;28;20477;-60
2022/08/15 12:00:16;;;;;;;9.60;8.60;;;32.30;71.90;;;;;;5090956;28;20431;-58
2022/08/15 12:02:43;;;;;;;9.73;8.73;;;32.50;71.00;;;;;;5092233;28;20457;-59
2022/08/15 12:05:14;;;;;;;10.03;9.10;;;32.60;71.10;;;;;;5090936;28;20446;-59
2022/08/15 12:07:47;;;;;;;16.53;9.87;;;32.90;71.70;;;;;;5092629;28;20605;-58
2022/08/15 12:10:28;;;;;;;10.00;9.10;;;33.10;71.00;;;;;;5091501;28;20478;-61
2022/08/15 12:12:57;;;;;;;10.10;9.10;;;33.30;70.20;;;;;;5090573;28;20442;-62
2022/08/15 12:15:40;;;;;;;11.03;8.80;;;33.30;69.10;;;;;;5091942;28;20466;-60
2022/08/15 12:18:14;;;;;;;9.90;8.90;;;33.20;69.60;;;;;;5090234;28;20549;-61
2022/08/15 12:20:45;;;;;;;9.40;8.60;;;32.90;69.40;;;;;;5089131;28;20485;-59
2022/08/15 12:23:35;;;;;;;12.13;10.27;;;32.60;69.90;;;;;;5088793;28;20442;-62
2022/08/15 12:26:05;;;;;;;10.27;9.27;;;32.40;70.70;;;;;;5088680;28;20766;-61
2022/08/15 12:28:38;;;;;;;10.60;9.50;;;32.10;71.20;;;;;;5088310;28;20427;-61
2022/08/15 12:31:22;;;;;;;9.83;8.83;;;31.90;71.70;;;;;;5087333;28;20966;-62
2022/08/15 12:34:00;;;;;;;9.37;8.37;;;31.80;73.20;;;;;;5087874;28;20426;-58
2022/08/15 12:36:27;;;;;;;10.87;9.87;;;31.70;72.50;;;;;;5089145;28;20545;-59
2022/08/15 12:38:54;;;;;;;11.10;9.97;;;31.60;73.10;;;;;;5089024;28;20549;-60
2022/08/15 12:41:21;;;;;;;10.33;8.60;;;31.70;72.40;;;;;;5088487;28;20549;-60
2022/08/15 12:43:51;;;;;;;10.93;9.00;;;31.70;72.30;;;;;;5088112;28;20518;-59
2022/08/15 12:46:18;;;;;;;9.90;9.00;;;31.70;72.00;;;;;;5088490;28;20958;-59
2022/08/15 12:48:47;;;;;;;10.10;9.10;;;31.60;72.50;;;;;;5088944;28;20940;-59
2022/08/15 12:51:14;;;;;;;9.40;8.50;;;31.40;72.60;;;;;;5088449;28;20504;-60
2022/08/15 12:53:40;;;;;;;12.87;9.10;;;31.40;73.20;;;;;;5092381;28;20449;-62
2022/08/15 12:56:09;;;;;;;9.80;8.77;;;31.20;73.70;;;;;;5091712;28;20525;-60
2022/08/15 12:58:37;;;;;;;11.37;9.67;;;31.20;74.20;;;;;;5092450;28;20489;-60
2022/08/15 13:01:08;;;;;;;10.83;9.50;;;31.10;74.20;;;;;;5091832;28;20470;-60
2022/08/15 13:03:36;;;;;;;9.53;8.63;;;31.10;74.40;;;;;;5092210;28;20437;-60